Time,TemperatureF,DewpointF,PressureIn,WindDirection,WindDirectionDegrees,WindSpeedMPH,WindSpeedGustMPH,Humidity,HourlyPrecipIn,Conditions,Clouds,dailyrainin,SolarRadiationWatts/m^2,SoftwareType,DateUTC
2013-01-22 00:12:00,18.6,9.0,30.30,NNE,32,3.0,-999.0,65,-99.99,,,0.00,0,weatherlink.com 1.10,2013-01-22 07:12:00,
2013-01-22 00:28:00,21.3,12.0,30.31,NNE,32,0.0,-999.0,66,-99.99,,,0.00,0,weatherlink.com 1.10,2013-01-22 07:28:00,
2013-01-22 00:42:00,25.8,10.0,30.30,ENE,65,0.0,-999.0,51,-99.99,,,0.00,0,weatherlink.com 1.10,2013-01-22 07:42:00,
2013-01-22 00:57:00,30.8,10.0,30.30,SE,128,0.0,-999.0,41,-99.99,,,0.00,0,weatherlink.com 1.10,2013-01-22 07:57:00,
2013-01-22 01:12:00,29.3,9.0,30.29,SE,130,0.0,-999.0,42,-99.99,,,0.00,0,weatherlink.com 1.10,2013-01-22 08:12:00,
2013-01-22 01:27:00,23.5,6.0,30.29,NE,34,4.0,-999.0,48,-99.99,,,0.00,0,weatherlink.com 1.10,2013-01-22 08:27:00,
2013-01-22 01:42:00,20.0,11.0,30.30,NE,42,0.0,-999.0,68,-99.99,,,0.00,0,weatherlink.com 1.10,2013-01-22 08:42:00,
2013-01-22 01:57:00,23.8,10.0,30.30,NE,42,0.0,-999.0,55,-99.99,,,0.00,0,weatherlink.com 1.10,2013-01-22 08:57:00,
2013-01-22 02:12:00,29.4,10.0,30.30,WSW,255,0.0,-999.0,44,-99.99,,,0.00,0,weatherlink.com 1.10,2013-01-22 09:12:00,
2013-01-22 02:27:00,30.2,9.0,30.30,SSW,193,0.0,-999.0,41,-99.99,,,0.00,0,weatherlink.com 1.10,2013-01-22 09:27:00,
2013-01-22 02:42:00,30.0,9.0,30.30,South,171,4.0,-999.0,41,-99.99,,,0.00,0,weatherlink.com 1.10,2013-01-22 09:42:00,
2013-01-22 02:57:00,26.3,8.0,30.29,SSE,161,6.0,-999.0,46,-99.99,,,0.00,0,weatherlink.com 1.10,2013-01-22 09:57:00,
2013-01-22 03:13:00,21.8,9.0,30.29,SE,136,7.0,-999.0,57,-99.99,,,0.00,0,weatherlink.com 1.10,2013-01-22 10:13:00,
2013-01-22 03:27:00,21.9,9.0,30.29,SSE,167,5.0,-999.0,58,-99.99,,,0.00,0,weatherlink.com 1.10,2013-01-22 10:27:00,
2013-01-22 03:42:00,22.5,9.0,30.29,SSE,164,4.0,-999.0,56,-99.99,,,0.00,0,weatherlink.com 1.10,2013-01-22 10:42:00,
2013-01-22 03:57:00,21.3,7.0,30.29,SSE,167,2.0,-999.0,55,-99.99,,,0.00,0,weatherlink.com 1.10,2013-01-22 10:57:00,
2013-01-22 04:12:00,21.0,7.0,30.29,ENE,78,3.0,-999.0,54,-99.99,,,0.00,0,weatherlink.com 1.10,2013-01-22 11:12:00,
2013-01-22 04:27:00,24.4,9.0,30.28,SSE,157,6.0,-999.0,51,-99.99,,,0.00,0,weatherlink.com 1.10,2013-01-22 11:27:00,
2013-01-22 04:42:00,23.0,8.0,30.27,South,169,6.0,-999.0,52,-99.99,,,0.00,0,weatherlink.com 1.10,2013-01-22 11:42:00,
2013-01-22 04:58:00,24.6,8.0,30.27,South,187,3.0,-999.0,49,-99.99,,,0.00,0,weatherlink.com 1.10,2013-01-22 11:58:00,
2013-01-22 05:13:00,27.2,7.0,30.27,SSW,213,5.0,-999.0,43,-99.99,,,0.00,0,weatherlink.com 1.10,2013-01-22 12:13:00,
2013-01-22 05:28:00,27.0,6.0,30.28,East,98,5.0,-999.0,41,-99.99,,,0.00,0,weatherlink.com 1.10,2013-01-22 12:28:00,
2013-01-22 05:43:00,27.2,6.0,30.28,NE,41,0.0,-999.0,41,-99.99,,,0.00,0,weatherlink.com 1.10,2013-01-22 12:43:00,
2013-01-22 05:58:00,26.1,6.0,30.27,SSE,167,6.0,-999.0,42,-99.99,,,0.00,0,weatherlink.com 1.10,2013-01-22 12:58:00,
2013-01-22 06:13:00,26.3,6.0,30.27,SE,128,2.0,-999.0,42,-99.99,,,0.00,0,weatherlink.com 1.10,2013-01-22 13:13:00,
2013-01-22 06:28:00,26.0,5.0,30.27,ESE,103,6.0,-999.0,41,-99.99,,,0.00,0,weatherlink.com 1.10,2013-01-22 13:28:00,
2013-01-22 06:43:00,22.9,3.0,30.28,NNE,31,8.0,-999.0,42,-99.99,,,0.00,0,weatherlink.com 1.10,2013-01-22 13:43:00,
2013-01-22 06:58:00,10.4,3.0,30.27,NE,48,0.0,-999.0,71,-99.99,,,0.00,0,weatherlink.com 1.10,2013-01-22 13:58:00,
2013-01-22 07:13:00,18.5,5.0,30.27,SE,138,4.0,-999.0,56,-99.99,,,0.00,0,weatherlink.com 1.10,2013-01-22 14:13:00,
2013-01-22 07:28:00,19.3,3.0,30.28,SSW,213,1.0,-999.0,50,-99.99,,,0.00,5,weatherlink.com 1.10,2013-01-22 14:28:00,
2013-01-22 07:43:00,8.7,-1.0,30.28,NNE,33,0.0,-999.0,65,-99.99,,,0.00,9,weatherlink.com 1.10,2013-01-22 14:43:00,
2013-01-22 07:58:00,6.5,0.0,30.29,North,5,3.0,-999.0,75,-99.99,,,0.00,28,weatherlink.com 1.10,2013-01-22 14:58:00,
2013-01-22 08:13:00,6.2,1.0,30.30,NNE,20,4.0,-999.0,78,-99.99,,,0.00,58,weatherlink.com 1.10,2013-01-22 15:13:00,
2013-01-22 08:28:00,6.0,1.0,30.30,NE,47,7.0,-999.0,79,-99.99,,,0.00,74,weatherlink.com 1.10,2013-01-22 15:28:00,
2013-01-22 08:43:00,7.8,3.0,30.30,NE,42,4.0,-999.0,81,-99.99,,,0.00,125,weatherlink.com 1.10,2013-01-22 15:43:00,
2013-01-22 08:58:00,9.9,5.0,30.30,NNE,31,0.0,-999.0,79,-99.99,,,0.00,171,weatherlink.com 1.10,2013-01-22 15:58:00,
2013-01-22 09:13:00,14.0,6.0,30.31,NNE,16,6.0,-999.0,71,-99.99,,,0.00,225,weatherlink.com 1.10,2013-01-22 16:13:00,
2013-01-22 09:28:00,14.0,7.0,30.32,NNE,27,5.0,-999.0,72,-99.99,,,0.00,251,weatherlink.com 1.10,2013-01-22 16:28:00,
2013-01-22 09:43:00,15.8,8.0,30.32,NE,45,2.0,-999.0,71,-99.99,,,0.00,315,weatherlink.com 1.10,2013-01-22 16:43:00,
2013-01-22 09:59:00,19.7,10.0,30.32,NNE,32,2.0,-999.0,66,-99.99,,,0.00,357,weatherlink.com 1.10,2013-01-22 16:59:00,
2013-01-22 10:14:00,24.9,11.0,30.32,NNW,343,2.0,-999.0,57,-99.99,,,0.00,390,weatherlink.com 1.10,2013-01-22 17:14:00,
2013-01-22 10:29:00,25.1,12.0,30.32,NNW,342,0.0,-999.0,58,-99.99,,,0.00,420,weatherlink.com 1.10,2013-01-22 17:29:00,
2013-01-22 10:44:00,25.4,13.0,30.32,NNW,345,0.0,-999.0,59,-99.99,,,0.00,445,weatherlink.com 1.10,2013-01-22 17:44:00,
2013-01-22 10:59:00,27.5,13.0,30.32,NNE,24,1.0,-999.0,54,-99.99,,,0.00,471,weatherlink.com 1.10,2013-01-22 17:59:00,
2013-01-22 11:14:00,27.1,14.0,30.32,NNE,33,4.0,-999.0,57,-99.99,,,0.00,492,weatherlink.com 1.10,2013-01-22 18:14:00,
2013-01-22 11:29:00,27.6,13.0,30.31,NNE,31,4.0,-999.0,54,-99.99,,,0.00,510,weatherlink.com 1.10,2013-01-22 18:29:00,
2013-01-22 11:44:00,29.0,14.0,30.30,NNE,26,5.0,-999.0,53,-99.99,,,0.00,515,weatherlink.com 1.10,2013-01-22 18:44:00,
2013-01-22 11:59:00,31.1,15.0,30.29,NNE,30,6.0,-999.0,51,-99.99,,,0.00,541,weatherlink.com 1.10,2013-01-22 18:59:00,
2013-01-22 12:14:00,32.4,14.0,30.29,NE,38,5.0,-999.0,47,-99.99,,,0.00,501,weatherlink.com 1.10,2013-01-22 19:14:00,
2013-01-22 12:29:00,33.4,15.0,30.29,North,5,4.0,-999.0,47,-99.99,,,0.00,541,weatherlink.com 1.10,2013-01-22 19:29:00,
2013-01-22 12:44:00,35.2,17.0,30.28,North,5,0.0,-999.0,47,-99.99,,,0.00,541,weatherlink.com 1.10,2013-01-22 19:44:00,
2013-01-22 12:59:00,36.8,18.0,30.28,NNW,338,1.0,-999.0,47,-99.99,,,0.00,492,weatherlink.com 1.10,2013-01-22 19:59:00,
2013-01-22 13:14:00,36.4,19.0,30.27,NNW,340,3.0,-999.0,49,-99.99,,,0.00,471,weatherlink.com 1.10,2013-01-22 20:14:00,
2013-01-22 13:30:00,36.0,17.0,30.27,NNW,344,0.0,-999.0,47,-99.99,,,0.00,418,weatherlink.com 1.10,2013-01-22 20:30:00,
2013-01-22 13:45:00,36.5,17.0,30.26,NW,323,0.0,-999.0,45,-99.99,,,0.00,396,weatherlink.com 1.10,2013-01-22 20:45:00,
2013-01-22 14:00:00,36.7,17.0,30.27,NW,323,0.0,-999.0,45,-99.99,,,0.00,346,weatherlink.com 1.10,2013-01-22 21:00:00,
2013-01-22 14:15:00,35.1,17.0,30.26,NE,37,3.0,-999.0,48,-99.99,,,0.00,230,weatherlink.com 1.10,2013-01-22 21:15:00,
2013-01-22 14:30:00,33.8,17.0,30.27,North,355,3.0,-999.0,50,-99.99,,,0.00,193,weatherlink.com 1.10,2013-01-22 21:30:00,
2013-01-22 14:45:00,32.5,16.0,30.28,North,355,2.0,-999.0,50,-99.99,,,0.00,163,weatherlink.com 1.10,2013-01-22 21:45:00,
2013-01-22 15:00:00,32.8,16.0,30.28,North,5,6.0,-999.0,50,-99.99,,,0.00,188,weatherlink.com 1.10,2013-01-22 22:00:00,
2013-01-22 15:15:00,31.6,16.0,30.29,North,360,5.0,-999.0,52,-99.99,,,0.00,149,weatherlink.com 1.10,2013-01-22 22:15:00,
2013-01-22 15:30:00,31.0,16.0,30.29,NNE,27,0.0,-999.0,54,-99.99,,,0.00,114,weatherlink.com 1.10,2013-01-22 22:30:00,
2013-01-22 15:45:00,30.1,16.0,30.30,NNE,26,0.0,-999.0,55,-99.99,,,0.00,97,weatherlink.com 1.10,2013-01-22 22:45:00,
2013-01-22 16:00:00,27.6,16.0,30.29,ESE,120,2.0,-999.0,63,-99.99,,,0.00,213,weatherlink.com 1.10,2013-01-22 23:00:00,
2013-01-22 16:15:00,27.9,16.0,30.29,SE,139,7.0,-999.0,62,-99.99,,,0.00,195,weatherlink.com 1.10,2013-01-22 23:15:00,
2013-01-22 16:30:00,28.1,16.0,30.30,SE,125,0.0,-999.0,62,-99.99,,,0.00,123,weatherlink.com 1.10,2013-01-22 23:30:00,
2013-01-22 16:46:00,28.1,16.0,30.29,SE,125,0.0,-999.0,61,-99.99,,,0.00,51,weatherlink.com 1.10,2013-01-22 23:46:00,
2013-01-22 17:01:00,27.3,16.0,30.29,SE,125,0.0,-999.0,63,-99.99,,,0.00,18,weatherlink.com 1.10,2013-01-23 00:01:00,
2013-01-22 17:16:00,26.6,15.0,30.29,SE,125,0.0,-999.0,62,-99.99,,,0.00,5,weatherlink.com 1.10,2013-01-23 00:16:00,
2013-01-22 17:31:00,25.7,15.0,30.30,ESE,102,0.0,-999.0,65,-99.99,,,0.00,0,weatherlink.com 1.10,2013-01-23 00:31:00,
2013-01-22 18:03:00,27.1,17.0,30.30,East,86,0.0,-999.0,65,-99.99,,,0.00,0,weatherlink.com 1.10,2013-01-23 01:03:00,
2013-01-22 18:16:00,26.7,16.0,30.30,East,87,0.0,-999.0,65,-99.99,,,0.00,0,weatherlink.com 1.10,2013-01-23 01:16:00,
2013-01-22 19:01:00,24.7,15.0,30.30,East,80,0.0,-999.0,67,-99.99,,,0.00,0,weatherlink.com 1.10,2013-01-23 02:01:00,
2013-01-22 19:31:00,27.2,16.0,30.30,East,80,0.0,-999.0,64,-99.99,,,0.00,0,weatherlink.com 1.10,2013-01-23 02:31:00,
2013-01-22 19:46:00,26.4,16.0,30.30,East,80,0.0,-999.0,65,-99.99,,,0.00,0,weatherlink.com 1.10,2013-01-23 02:46:00,
2013-01-22 20:17:00,25.8,14.0,30.30,ENE,76,2.0,-999.0,62,-99.99,,,0.00,0,weatherlink.com 1.10,2013-01-23 03:17:00,
2013-01-22 20:32:00,20.7,13.0,30.30,NE,44,2.0,-999.0,71,-99.99,,,0.00,0,weatherlink.com 1.10,2013-01-23 03:32:00,
2013-01-22 21:03:00,19.1,13.0,30.31,NE,42,3.0,-999.0,76,-99.99,,,0.00,0,weatherlink.com 1.10,2013-01-23 04:03:00,
2013-01-22 21:17:00,19.9,14.0,30.32,NE,42,3.0,-999.0,76,-99.99,,,0.00,0,weatherlink.com 1.10,2013-01-23 04:17:00,
2013-01-22 21:32:00,21.4,13.0,30.32,NE,42,2.0,-999.0,69,-99.99,,,0.00,0,weatherlink.com 1.10,2013-01-23 04:32:00,
2013-01-22 22:17:00,23.9,14.0,30.34,NE,42,0.0,-999.0,66,-99.99,,,0.00,0,weatherlink.com 1.10,2013-01-23 05:17:00,
2013-01-22 22:32:00,23.8,15.0,30.33,NE,42,0.0,-999.0,68,-99.99,,,0.00,0,weatherlink.com 1.10,2013-01-23 05:32:00,
2013-01-22 22:47:00,24.0,15.0,30.34,NE,42,0.0,-999.0,69,-99.99,,,0.00,0,weatherlink.com 1.10,2013-01-23 05:47:00,
2013-01-22 23:02:00,24.4,16.0,30.34,NE,42,0.0,-999.0,69,-99.99,,,0.00,0,weatherlink.com 1.10,2013-01-23 06:02:00,
2013-01-22 23:17:00,24.8,15.0,30.34,NE,42,0.0,-999.0,67,-99.99,,,0.00,0,weatherlink.com 1.10,2013-01-23 06:17:00,
2013-01-22 23:33:00,25.2,15.0,30.33,NE,42,0.0,-999.0,65,-99.99,,,0.00,0,weatherlink.com 1.10,2013-01-23 06:33:00,
2013-01-22 23:48:00,25.6,14.0,30.33,NE,42,0.0,-999.0,63,-99.99,,,0.00,0,weatherlink.com 1.10,2013-01-23 06:48:00,